createdAt,value
2017-08-21T00:00:48.383Z,99052.66
2017-08-21T00:03:15.853Z,99055.34
2017-08-21T00:05:43.292Z,99053.78
2017-08-21T00:08:10.733Z,99047.41
2017-08-21T00:10:38.205Z,99044.20
2017-08-21T00:13:05.658Z,99043.41
2017-08-21T00:15:33.141Z,99040.08
2017-08-21T00:18:00.594Z,99044.91
2017-08-21T00:20:28.045Z,99040.44
2017-08-21T00:22:55.530Z,99045.10
2017-08-21T00:25:22.977Z,99040.58
2017-08-21T00:27:50.416Z,99039.89
2017-08-21T00:30:17.886Z,99032.67
2017-08-21T00:32:45.363Z,99032.54
2017-08-21T00:35:12.977Z,99037.19
2017-08-21T00:37:40.458Z,99037.62
2017-08-21T00:40:07.900Z,99031.91
2017-08-21T00:42:35.369Z,99028.89
2017-08-21T00:45:02.829Z,99031.79
2017-08-21T00:47:30.309Z,99034.27
2017-08-21T00:49:57.776Z,99032.44
2017-08-21T00:52:25.224Z,99028.90
2017-08-21T00:54:52.702Z,99021.20
2017-08-21T00:57:20.145Z,99016.64
2017-08-21T00:59:47.588Z,99017.32
2017-08-21T01:02:15.053Z,99020.46
2017-08-21T01:04:42.505Z,99025.64
2017-08-21T01:07:09.960Z,99015.71
2017-08-21T01:09:37.430Z,99020.46
2017-08-21T01:12:04.897Z,99013.59
2017-08-21T01:14:32.365Z,99014.20
2017-08-21T01:16:59.810Z,99011.88
2017-08-21T01:19:27.278Z,99019.84
2017-08-21T01:21:54.724Z,99011.00
2017-08-21T01:24:22.196Z,99008.13
2017-08-21T01:26:49.640Z,99013.47
2017-08-21T01:29:17.085Z,99012.85
2017-08-21T01:31:44.569Z,99015.67
2017-08-21T01:34:12.009Z,99024.81
2017-08-21T01:36:39.489Z,99026.34
2017-08-21T01:39:06.934Z,99027.80
2017-08-21T01:41:34.385Z,99027.16
2017-08-21T01:44:01.853Z,99030.30
2017-08-21T01:46:29.306Z,99033.34
2017-08-21T01:48:56.757Z,99023.75
2017-08-21T01:51:24.221Z,99028.38
2017-08-21T01:53:51.701Z,99020.55
2017-08-21T01:56:19.165Z,99015.94
2017-08-21T01:58:46.621Z,99011.67
2017-08-21T02:01:14.086Z,99008.88
2017-08-21T02:03:41.557Z,99016.91
2017-08-21T02:06:09.001Z,99020.92
2017-08-21T02:08:36.469Z,99030.52
2017-08-21T02:11:03.913Z,99034.94
2017-08-21T02:13:31.364Z,99028.89
2017-08-21T02:15:58.841Z,99031.05
2017-08-21T02:18:26.309Z,99029.91
2017-08-21T02:20:53.773Z,99026.28
2017-08-21T02:23:21.217Z,99023.48
2017-08-21T02:34:41.065Z,99022.50
2017-08-21T02:37:08.521Z,99015.25
2017-08-21T02:39:35.975Z,99015.25
2017-08-21T02:42:03.454Z,99014.17
2017-08-21T02:44:30.928Z,99012.54
2017-08-21T02:46:58.373Z,99012.30
2017-08-21T02:49:25.826Z,99009.58
2017-08-21T02:51:53.302Z,99000.94
2017-08-21T02:54:20.744Z,99013.20
2017-08-21T02:56:48.193Z,99014.79
2017-08-21T02:59:15.663Z,99015.30
2017-08-21T03:01:43.247Z,99009.44
2017-08-21T03:04:10.726Z,99015.44
2017-08-21T03:06:38.168Z,99031.44
2017-08-21T03:09:05.637Z,99028.45
2017-08-21T03:11:33.114Z,99019.50
2017-08-21T03:14:00.584Z,99020.31
2017-08-21T03:16:28.034Z,99023.07
2017-08-21T03:18:55.526Z,99012.17
2017-08-21T03:21:22.979Z,99020.31
2017-08-21T03:23:50.424Z,99029.27
2017-08-21T03:26:17.898Z,99024.34
2017-08-21T03:28:45.347Z,99018.61
2017-08-21T03:31:12.813Z,99017.47
2017-08-21T03:33:40.263Z,99018.37
2017-08-21T03:36:07.741Z,99018.72
2017-08-21T03:38:35.221Z,99022.33
2017-08-21T03:41:02.669Z,99021.09
2017-08-21T03:43:30.128Z,99010.94
2017-08-21T03:45:57.581Z,99011.16
2017-08-21T03:48:25.068Z,99014.73
2017-08-21T03:50:52.536Z,99015.66
2017-08-21T03:53:19.982Z,99023.58
2017-08-21T03:55:47.454Z,99018.84
2017-08-21T03:58:14.909Z,99019.42
2017-08-21T04:00:42.388Z,99026.86
2017-08-21T04:03:09.837Z,99027.59
2017-08-21T04:05:37.293Z,99013.64
2017-08-21T04:08:04.774Z,99013.60
2017-08-21T04:10:32.217Z,99030.50
2017-08-21T04:12:59.669Z,99031.16
2017-08-21T04:15:27.145Z,99035.04
2017-08-21T04:17:54.689Z,99033.32
2017-08-21T04:20:22.152Z,99027.34
2017-08-21T04:22:49.601Z,99037.64
2017-08-21T04:25:17.067Z,99041.92
2017-08-21T04:27:44.541Z,99047.19
2017-08-21T04:30:11.992Z,99039.75
2017-08-21T04:32:39.464Z,99041.96
2017-08-21T04:35:06.929Z,99041.13
2017-08-21T04:37:34.461Z,99046.11
2017-08-21T04:40:01.926Z,99036.58
2017-08-21T04:42:29.376Z,99039.91
2017-08-21T04:44:57.584Z,99033.56
2017-08-21T04:47:25.033Z,99044.48
2017-08-21T04:49:52.470Z,99036.78
2017-08-21T04:52:19.941Z,99033.38
2017-08-21T04:54:47.390Z,99035.00
2017-08-21T04:57:14.887Z,99035.55
2017-08-21T04:59:42.343Z,99038.09
2017-08-21T05:02:09.793Z,99039.64
2017-08-21T05:04:37.257Z,99049.00
2017-08-21T05:07:04.709Z,99048.32
2017-08-21T05:09:32.177Z,99043.30
2017-08-21T05:11:59.623Z,99041.28
2017-08-21T05:14:27.097Z,99046.73
2017-08-21T05:16:54.544Z,99045.71
2017-08-21T05:19:22.001Z,99042.23
2017-08-21T05:21:50.713Z,99040.53
2017-08-21T05:24:18.162Z,99045.55
2017-08-21T05:26:45.637Z,99053.30
2017-08-21T05:29:13.086Z,99057.57
2017-08-21T05:31:40.549Z,99054.34
2017-08-21T05:34:08.012Z,99053.63
2017-08-21T05:36:35.481Z,99058.05
2017-08-21T05:39:02.937Z,99073.73
2017-08-21T05:41:30.408Z,99072.11
2017-08-21T05:43:57.868Z,99071.31
2017-08-21T05:46:25.349Z,99065.75
2017-08-21T05:48:52.788Z,99072.28
2017-08-21T05:51:20.260Z,99073.31
2017-08-21T05:53:47.705Z,99065.80
2017-08-21T05:56:15.181Z,99065.75
2017-08-21T05:58:42.633Z,99074.66
2017-08-21T06:01:10.084Z,99071.52
2017-08-21T06:03:37.556Z,99071.00
2017-08-21T06:06:05.016Z,99069.21
2017-08-21T06:08:32.476Z,99075.44
2017-08-21T06:10:59.949Z,99066.66
2017-08-21T06:13:27.397Z,99074.30
2017-08-21T06:15:54.874Z,99078.27
2017-08-21T06:18:22.343Z,99076.67
2017-08-21T06:20:49.830Z,99085.66
2017-08-21T06:23:17.314Z,99083.64
2017-08-21T06:25:44.761Z,99084.52
2017-08-21T06:28:12.216Z,99087.78
2017-08-21T06:30:39.686Z,99083.72
2017-08-21T06:33:07.133Z,99081.57
2017-08-21T06:35:34.578Z,99078.58
2017-08-21T06:38:02.050Z,99082.94
2017-08-21T06:40:29.494Z,99088.83
2017-08-21T06:42:56.968Z,99092.28
2017-08-21T06:45:24.484Z,99093.64
2017-08-21T06:47:51.965Z,99093.02
2017-08-21T06:50:19.406Z,99089.86
2017-08-21T06:52:46.861Z,99090.86
2017-08-21T06:55:14.330Z,99086.87
2017-08-21T06:57:41.778Z,99092.06
2017-08-21T07:00:09.248Z,99092.91
2017-08-21T07:02:36.940Z,99096.03
2017-08-21T07:05:04.382Z,99092.09
2017-08-21T07:07:31.853Z,99086.07
2017-08-21T07:09:59.302Z,99092.99
2017-08-21T07:12:26.767Z,99092.68
2017-08-21T07:14:54.212Z,99098.63
2017-08-21T07:17:21.687Z,99093.97
2017-08-21T07:19:49.133Z,99094.86
2017-08-21T07:22:16.601Z,99094.95
2017-08-21T07:24:44.062Z,99096.20
2017-08-21T07:27:11.508Z,99094.23
2017-08-21T07:29:38.969Z,99092.34
2017-08-21T07:32:06.413Z,99093.13
2017-08-21T07:34:33.893Z,99089.95
2017-08-21T07:37:01.335Z,99087.77
2017-08-21T07:39:28.777Z,99100.22
2017-08-21T07:41:56.244Z,99094.94
2017-08-21T07:44:23.696Z,99094.67
2017-08-21T07:46:51.190Z,99087.73
2017-08-21T07:49:18.645Z,99089.43
2017-08-21T07:51:46.089Z,99092.68
2017-08-21T07:54:13.583Z,99090.88
2017-08-21T07:56:41.058Z,99099.40
2017-08-21T07:59:08.504Z,99090.55
2017-08-21T08:01:35.975Z,99095.64
2017-08-21T08:04:03.449Z,99090.52
2017-08-21T08:06:30.913Z,99087.52
2017-08-21T08:08:58.363Z,99087.30
2017-08-21T08:11:25.808Z,99084.17
2017-08-21T08:13:53.278Z,99092.03
2017-08-21T08:16:20.745Z,99086.59
2017-08-21T08:18:48.208Z,99092.45
2017-08-21T08:21:15.685Z,99098.70
2017-08-21T08:23:43.130Z,99099.84
2017-08-21T08:26:10.576Z,99089.97
2017-08-21T08:28:38.052Z,99090.19
2017-08-21T08:31:05.524Z,99088.22
2017-08-21T08:33:32.992Z,99091.19
2017-08-21T08:36:00.454Z,99087.03
2017-08-21T08:38:27.902Z,99082.36
2017-08-21T08:40:55.574Z,99087.00
2017-08-21T08:43:23.045Z,99086.09
2017-08-21T08:45:50.490Z,99078.28
2017-08-21T08:48:17.957Z,99084.94
2017-08-21T08:50:45.437Z,99082.39
2017-08-21T08:53:12.910Z,99077.98
2017-08-21T08:55:40.366Z,99083.05
2017-08-21T08:58:07.809Z,99079.95
2017-08-21T09:00:35.279Z,99083.19
2017-08-21T09:03:02.724Z,99083.41
2017-08-21T09:05:30.254Z,99084.76
2017-08-21T09:07:57.701Z,99079.45
2017-08-21T09:10:25.200Z,99086.97
2017-08-21T09:12:52.637Z,99071.02
2017-08-21T09:15:20.084Z,99082.53
2017-08-21T09:17:47.550Z,99077.42
2017-08-21T09:20:15.020Z,99070.89
2017-08-21T09:22:42.465Z,99082.95
2017-08-21T09:25:09.909Z,99073.73
2017-08-21T09:27:37.372Z,99075.37
2017-08-21T09:30:04.830Z,99072.77
2017-08-21T09:32:32.308Z,99076.16
2017-08-21T09:34:59.757Z,99081.73
2017-08-21T09:37:27.204Z,99066.44
2017-08-21T09:39:54.682Z,99061.30
2017-08-21T09:42:22.127Z,99054.81
2017-08-21T09:44:49.596Z,99052.64
2017-08-21T09:47:17.068Z,99059.95
2017-08-21T09:49:44.534Z,99054.91
2017-08-21T09:52:11.977Z,99046.61
2017-08-21T09:54:39.453Z,99048.86
2017-08-21T09:57:06.906Z,99043.66
2017-08-21T09:59:34.378Z,99054.76
2017-08-21T10:02:01.850Z,99048.83
2017-08-21T10:04:29.302Z,99040.59
2017-08-21T10:06:56.789Z,99041.80
2017-08-21T10:09:24.259Z,99041.50
2017-08-21T10:11:51.723Z,99051.89
2017-08-21T10:14:19.202Z,99028.38
2017-08-21T10:16:46.676Z,99037.71
2017-08-21T10:19:14.163Z,99032.29
2017-08-21T10:21:41.631Z,99028.88
2017-08-21T10:24:09.077Z,99031.66
2017-08-21T10:26:37.286Z,99029.91
2017-08-21T10:29:04.738Z,99013.14
2017-08-21T10:31:32.189Z,99019.52
2017-08-21T10:33:59.658Z,99020.00
2017-08-21T10:36:27.106Z,99019.42
2017-08-21T10:38:54.566Z,99023.27
2017-08-21T10:41:22.046Z,99019.02
2017-08-21T10:43:49.501Z,99015.91
2017-08-21T10:46:16.973Z,99030.69
2017-08-21T10:48:44.445Z,99027.14
2017-08-21T10:51:11.893Z,99012.35
2017-08-21T10:53:39.357Z,99011.30
2017-08-21T10:56:06.809Z,99018.92
2017-08-21T10:58:34.281Z,99009.22
2017-08-21T11:01:01.746Z,98998.83
2017-08-21T11:03:29.207Z,99001.84
2017-08-21T11:05:56.917Z,99020.42
2017-08-21T11:08:24.379Z,99015.28
2017-08-21T11:10:51.821Z,99018.80
2017-08-21T11:13:19.299Z,99003.80
2017-08-21T11:15:46.752Z,99001.95
2017-08-21T11:18:14.221Z,98991.59
2017-08-21T11:20:41.670Z,98996.09
2017-08-21T11:23:09.144Z,98987.97
2017-08-21T11:25:36.593Z,98998.30
2017-08-21T11:28:04.036Z,98977.98
2017-08-21T11:30:31.501Z,98982.54
2017-08-21T11:32:58.981Z,98984.44
2017-08-21T11:35:26.429Z,98979.91
2017-08-21T11:37:53.900Z,98981.20
2017-08-21T11:40:21.360Z,98983.83
2017-08-21T11:42:48.801Z,98975.36
2017-08-21T11:45:16.252Z,98972.39
2017-08-21T11:47:43.725Z,98958.31
2017-08-21T11:50:11.175Z,98978.88
2017-08-21T11:52:38.658Z,98965.13
2017-08-21T11:55:06.104Z,98973.03
2017-08-21T11:57:33.574Z,98975.09
2017-08-21T12:00:01.020Z,98970.38
2017-08-21T12:02:28.481Z,98980.74
2017-08-21T12:04:55.929Z,98977.99
2017-08-21T12:07:23.374Z,98974.76
2017-08-21T12:09:50.853Z,98968.92
2017-08-21T12:12:18.309Z,98964.53
2017-08-21T12:14:45.764Z,98961.38
2017-08-21T12:17:13.232Z,98964.76
2017-08-21T12:19:40.686Z,98955.02
2017-08-21T12:22:08.155Z,98949.59
2017-08-21T12:24:35.610Z,98973.98
2017-08-21T12:27:03.082Z,98959.97
2017-08-21T12:29:30.528Z,98948.53
2017-08-21T12:31:57.973Z,98945.08
2017-08-21T12:34:25.459Z,98944.16
2017-08-21T12:36:52.921Z,98947.96
2017-08-21T12:39:20.399Z,98937.41
2017-08-21T12:41:47.842Z,98928.98
2017-08-21T12:44:15.317Z,98931.45
2017-08-21T12:46:42.766Z,98940.95
2017-08-21T12:49:10.217Z,98929.41
2017-08-21T12:51:37.693Z,98926.95
2017-08-21T12:54:05.164Z,98930.99
2017-08-21T12:56:32.661Z,98935.97
2017-08-21T12:59:00.114Z,98928.52
2017-08-21T13:01:27.584Z,98923.58
2017-08-21T13:03:55.053Z,98931.00
2017-08-21T13:06:22.528Z,98915.33
2017-08-21T13:08:49.977Z,98911.08
2017-08-21T13:11:17.448Z,98913.22
2017-08-21T13:13:44.885Z,98913.41
2017-08-21T13:16:12.353Z,98918.00
2017-08-21T13:18:39.799Z,98915.72
2017-08-21T13:21:07.267Z,98912.31
2017-08-21T13:23:34.719Z,98916.51
2017-08-21T13:26:02.184Z,98917.73
2017-08-21T13:28:29.630Z,98912.41
2017-08-21T13:30:57.081Z,98916.50
2017-08-21T13:33:24.552Z,98909.17
2017-08-21T13:35:52.010Z,98908.64
2017-08-21T13:38:19.489Z,98908.52
2017-08-21T13:40:46.941Z,98901.36
2017-08-21T13:43:14.390Z,98893.19
2017-08-21T13:45:41.862Z,98903.36
2017-08-21T13:48:09.343Z,98900.05
2017-08-21T13:50:36.814Z,98892.42
2017-08-21T13:53:04.270Z,98894.19
2017-08-21T13:55:31.728Z,98898.06
2017-08-21T13:57:59.205Z,98891.06
2017-08-21T14:00:26.648Z,98887.42
2017-08-21T14:02:54.097Z,98888.02
2017-08-21T14:05:21.567Z,98888.66
2017-08-21T14:07:49.036Z,98893.45
2017-08-21T14:10:16.513Z,98877.92
2017-08-21T14:12:43.950Z,98878.79
2017-08-21T14:15:11.401Z,98878.59
2017-08-21T14:17:38.868Z,98875.37
2017-08-21T14:20:06.326Z,98870.12
2017-08-21T14:22:33.769Z,98875.31
2017-08-21T14:25:01.243Z,98871.77
2017-08-21T14:27:28.721Z,98870.85
2017-08-21T14:29:56.170Z,98866.17
2017-08-21T14:32:23.635Z,98872.28
2017-08-21T14:34:51.109Z,98875.27
2017-08-21T14:37:18.573Z,98865.73
2017-08-21T14:39:46.037Z,98870.67
2017-08-21T14:42:13.486Z,98864.38
2017-08-21T14:44:40.925Z,98862.88
2017-08-21T14:47:08.411Z,98857.77
2017-08-21T14:49:35.860Z,98872.89
2017-08-21T14:52:03.328Z,98869.33
2017-08-21T14:54:30.769Z,98858.62
2017-08-21T14:56:58.248Z,98861.75
2017-08-21T14:59:25.713Z,98870.67
2017-08-21T15:01:53.217Z,98865.53
2017-08-21T15:04:20.703Z,98864.58
2017-08-21T15:06:48.167Z,98866.97
2017-08-21T15:09:15.647Z,98868.71
2017-08-21T15:11:43.101Z,98865.71
2017-08-21T15:14:10.624Z,98861.62
2017-08-21T15:16:38.300Z,98869.84
2017-08-21T15:19:05.786Z,98863.69
2017-08-21T15:21:33.246Z,98863.68
2017-08-21T15:24:00.721Z,98858.37
2017-08-21T15:26:28.186Z,98857.52
2017-08-21T15:28:55.656Z,98857.94
2017-08-21T15:31:23.141Z,98855.33
2017-08-21T15:33:50.621Z,98851.34
2017-08-21T15:36:18.078Z,98849.72
2017-08-21T15:38:45.556Z,98847.20
2017-08-21T15:41:13.034Z,98844.59
2017-08-21T15:43:40.547Z,98853.50
2017-08-21T15:46:07.993Z,98847.19
2017-08-21T15:48:35.474Z,98853.50
2017-08-21T15:51:02.996Z,98852.61
2017-08-21T15:53:30.453Z,98844.17
2017-08-21T15:55:57.898Z,98841.52
2017-08-21T15:58:25.369Z,98846.48
2017-08-21T16:00:52.825Z,98853.66
2017-08-21T16:03:20.267Z,98848.64
2017-08-21T16:05:47.784Z,98840.41
2017-08-21T16:08:15.237Z,98836.69
2017-08-21T16:10:42.719Z,98844.91
2017-08-21T16:13:10.190Z,98843.47
2017-08-21T16:15:37.664Z,98847.93
2017-08-21T16:18:05.116Z,98842.98
2017-08-21T16:20:32.582Z,98845.69
2017-08-21T16:23:00.039Z,98846.56
2017-08-21T16:25:27.544Z,98848.25
2017-08-21T16:27:54.989Z,98842.00
2017-08-21T16:30:22.452Z,98850.87
2017-08-21T16:32:49.891Z,98853.69
2017-08-21T16:35:17.341Z,98842.69
2017-08-21T16:37:44.805Z,98846.00
2017-08-21T16:40:12.255Z,98849.45
2017-08-21T16:42:39.709Z,98856.19
2017-08-21T16:45:07.180Z,98857.06
2017-08-21T16:47:34.664Z,98847.81
2017-08-21T16:50:02.154Z,98855.66
2017-08-21T16:52:29.774Z,98853.66
2017-08-21T16:54:57.234Z,98853.13
2017-08-21T16:57:24.713Z,98861.53
2017-08-21T16:59:52.190Z,98860.88
2017-08-21T17:02:19.665Z,98860.08
2017-08-21T17:04:47.110Z,98859.06
2017-08-21T17:07:14.556Z,98856.30
2017-08-21T17:09:42.036Z,98863.20
2017-08-21T17:12:09.493Z,98858.97
2017-08-21T17:14:36.937Z,98867.16
2017-08-21T17:17:04.415Z,98864.93
2017-08-21T17:19:31.956Z,98867.77
2017-08-21T17:21:59.433Z,98869.61
2017-08-21T17:24:26.881Z,98866.31
2017-08-21T17:26:56.173Z,98874.72
2017-08-21T17:29:58.440Z,98868.62
2017-08-21T17:32:28.084Z,98865.23
2017-08-21T17:34:56.736Z,98872.48
2017-08-21T17:37:25.409Z,98870.05
2017-08-21T17:39:54.648Z,98873.37
2017-08-21T17:42:24.256Z,98877.70
2017-08-21T17:44:53.536Z,98878.95
2017-08-21T17:47:21.122Z,98884.91
2017-08-21T17:49:48.660Z,98888.52
2017-08-21T17:52:16.332Z,98896.50
2017-08-21T17:54:43.834Z,98892.85
2017-08-21T17:57:13.196Z,98894.97
2017-08-21T17:59:42.673Z,98903.74
2017-08-21T18:02:12.019Z,98905.71
2017-08-21T18:04:40.999Z,98905.97
2017-08-21T18:07:11.047Z,98916.52
2017-08-21T18:09:40.445Z,98908.27
2017-08-21T18:12:10.091Z,98913.06
2017-08-21T18:14:39.078Z,98913.58
2017-08-21T18:17:07.938Z,98912.32
2017-08-21T18:19:36.552Z,98913.25
2017-08-21T18:22:04.064Z,98918.25
2017-08-21T18:24:31.573Z,98915.56
2017-08-21T18:26:59.022Z,98927.48
2017-08-21T18:29:26.536Z,98916.21
2017-08-21T18:31:54.200Z,98917.98
2017-08-21T18:34:21.645Z,98922.48
2017-08-21T18:36:49.128Z,98923.08
2017-08-21T18:39:16.604Z,98922.98
2017-08-21T18:41:44.051Z,98938.55
2017-08-21T18:44:11.796Z,98940.27
2017-08-21T18:46:39.246Z,98944.59
2017-08-21T18:49:06.713Z,98941.91
2017-08-21T18:51:34.199Z,98951.70
2017-08-21T18:54:01.658Z,98951.41
2017-08-21T18:56:29.357Z,98948.38
2017-08-21T18:58:56.886Z,98950.56
2017-08-21T19:01:24.386Z,98962.05
2017-08-21T19:03:52.062Z,98963.92
2017-08-21T19:06:20.498Z,98966.64
2017-08-21T19:08:49.715Z,98974.86
2017-08-21T19:11:17.274Z,98968.88
2017-08-21T19:13:44.745Z,98974.13
2017-08-21T19:16:13.164Z,98974.39
2017-08-21T19:18:41.987Z,98972.22
2017-08-21T19:21:09.867Z,98971.67
2017-08-21T19:23:37.382Z,98975.77
2017-08-21T19:26:05.265Z,98977.41
2017-08-21T19:28:34.657Z,98971.60
2017-08-21T19:31:03.417Z,98970.83
2017-08-21T19:33:31.132Z,98971.17
2017-08-21T19:35:58.864Z,98968.02
2017-08-21T19:38:26.336Z,98970.44
2017-08-21T19:40:54.405Z,98966.25
2017-08-21T19:43:22.842Z,98973.43
2017-08-21T19:45:50.581Z,98978.04
2017-08-21T19:48:18.029Z,98978.55
2017-08-21T19:50:45.544Z,98978.61
2017-08-21T19:53:14.606Z,98976.66
2017-08-21T19:55:43.261Z,98981.14
2017-08-21T19:58:11.593Z,98985.72
2017-08-21T20:00:41.084Z,98982.67
2017-08-21T20:03:08.609Z,98986.22
2017-08-21T20:05:36.077Z,98990.66
2017-08-21T20:08:04.238Z,98981.50
2017-08-21T20:10:32.788Z,98988.14
2017-08-21T20:13:00.290Z,98991.39
2017-08-21T20:15:28.067Z,98985.09
2017-08-21T20:17:56.049Z,98991.16
2017-08-21T20:20:24.770Z,98995.59
2017-08-21T20:22:52.389Z,98999.08
2017-08-21T20:25:20.056Z,99000.34
2017-08-21T20:27:47.510Z,99006.37
2017-08-21T20:30:14.993Z,99003.36
2017-08-21T20:32:42.444Z,99003.63
2017-08-21T20:35:09.891Z,99013.16
2017-08-21T20:37:37.372Z,99010.93
2017-08-21T20:40:05.406Z,99008.84
2017-08-21T20:42:32.855Z,99011.72
2017-08-21T20:45:01.070Z,99011.30
2017-08-21T20:47:29.942Z,99012.84
2017-08-21T20:49:57.516Z,99012.42
2017-08-21T20:52:24.960Z,99015.75
2017-08-21T20:54:52.434Z,99010.63
2017-08-21T20:57:19.900Z,99016.63
2017-08-21T20:59:47.372Z,99011.12
2017-08-21T21:02:14.854Z,99020.02
2017-08-21T21:04:42.329Z,99013.62
2017-08-21T21:07:09.782Z,99008.64
2017-08-21T21:09:37.451Z,99012.03
2017-08-21T21:12:04.916Z,99013.25
2017-08-21T21:14:32.965Z,99007.74
2017-08-21T21:17:00.444Z,99010.32
2017-08-21T21:19:27.906Z,99007.23
2017-08-21T21:21:55.369Z,99012.36
2017-08-21T21:24:23.367Z,99010.48
2017-08-21T21:26:50.839Z,99013.40
2017-08-21T21:29:18.293Z,99007.56
2017-08-21T21:31:45.781Z,99006.23
2017-08-21T21:34:13.565Z,99011.77
2017-08-21T21:36:41.018Z,99007.70
2017-08-21T21:39:08.488Z,99010.69
2017-08-21T21:41:36.774Z,99015.14
2017-08-21T21:44:04.335Z,99020.82
2017-08-21T21:46:31.830Z,99023.25
2017-08-21T21:48:59.277Z,99012.78
2017-08-21T21:51:26.770Z,99018.98
2017-08-21T21:53:54.238Z,99023.12
2017-08-21T21:56:21.673Z,99026.45
2017-08-21T21:58:49.120Z,99021.62
2017-08-21T22:01:16.707Z,99018.47
2017-08-21T22:03:44.314Z,99024.38
2017-08-21T22:06:11.789Z,99024.89
2017-08-21T22:08:39.241Z,99031.98
2017-08-21T22:11:09.193Z,99025.27
2017-08-21T22:13:38.684Z,99028.58
2017-08-21T22:16:08.291Z,99033.34
2017-08-21T22:18:37.709Z,99036.02
2017-08-21T22:21:07.372Z,99036.91
2017-08-21T22:23:34.935Z,99040.05
2017-08-21T22:26:02.392Z,99042.92
2017-08-21T22:28:29.861Z,99038.30
2017-08-21T22:30:57.339Z,99040.44
2017-08-21T22:33:24.790Z,99034.31
2017-08-21T22:35:52.247Z,99032.33
2017-08-21T22:38:19.717Z,99033.91
2017-08-21T22:40:47.165Z,99037.68
2017-08-21T22:43:14.634Z,99036.36
2017-08-21T22:45:42.080Z,99028.55
2017-08-21T22:48:09.526Z,99027.88
2017-08-21T22:50:37.006Z,99019.50
2017-08-21T22:53:04.453Z,99017.84
2017-08-21T22:55:31.898Z,99025.78
2017-08-21T22:57:59.368Z,99030.42
2017-08-21T23:00:26.844Z,99025.73
2017-08-21T23:02:54.317Z,99022.59
2017-08-21T23:05:21.785Z,99024.41
2017-08-21T23:07:49.225Z,99021.97
2017-08-21T23:10:16.670Z,99016.34
2017-08-21T23:12:44.138Z,99012.38
2017-08-21T23:15:12.329Z,99017.53
2017-08-21T23:17:39.776Z,99012.55
2017-08-21T23:20:07.266Z,99011.20
2017-08-21T23:22:34.704Z,99014.89
2017-08-21T23:25:02.147Z,99008.14
2017-08-21T23:27:29.612Z,99004.18
2017-08-21T23:29:57.059Z,99000.77
2017-08-21T23:32:24.511Z,99003.45
2017-08-21T23:34:51.986Z,99000.63
2017-08-21T23:37:19.437Z,98996.22
2017-08-21T23:39:46.906Z,98995.55
2017-08-21T23:42:14.352Z,98993.05
2017-08-21T23:44:41.823Z,98990.04
2017-08-21T23:47:09.272Z,98988.97
2017-08-21T23:49:36.746Z,98989.47
2017-08-21T23:52:04.201Z,98981.83
2017-08-21T23:54:32.020Z,98979.23
2017-08-21T23:56:59.502Z,98983.75
2017-08-21T23:59:26.944Z,98979.77
